createdAt,value
2022-09-02T00:01:51.935Z,9.57
2022-09-02T00:04:39.241Z,9.20
2022-09-02T00:07:38.147Z,9.80
2022-09-02T00:10:28.187Z,8.75
2022-09-02T00:13:18.629Z,9.23
2022-09-02T00:16:09.635Z,10.77
2022-09-02T00:18:57.806Z,10.50
2022-09-02T00:21:48.602Z,10.20
2022-09-02T00:24:39.571Z,9.88
2022-09-02T00:27:26.767Z,11.02
2022-09-02T00:30:16.676Z,11.20
2022-09-02T00:33:05.903Z,11.25
2022-09-02T00:35:53.370Z,10.10
2022-09-02T00:38:42.845Z,10.43
2022-09-02T00:41:30.922Z,11.50
2022-09-02T00:44:19.914Z,11.93
2022-09-02T00:47:09.442Z,12.25
2022-09-02T00:49:58.324Z,12.90
2022-09-02T00:52:49.395Z,12.43
2022-09-02T00:55:47.009Z,13.10
2022-09-02T00:58:37.121Z,12.63
2022-09-02T01:01:24.903Z,13.10
2022-09-02T01:04:12.909Z,12.88
2022-09-02T01:07:00.168Z,12.05
2022-09-02T01:09:47.449Z,12.00
2022-09-02T01:12:37.786Z,11.63
2022-09-02T01:15:26.845Z,11.75
2022-09-02T01:18:20.871Z,12.27
2022-09-02T01:21:08.250Z,12.35
2022-09-02T01:23:55.556Z,12.23
2022-09-02T01:26:44.109Z,12.48
2022-09-02T01:29:31.241Z,12.23
2022-09-02T01:32:22.936Z,12.45
2022-09-02T01:35:11.080Z,12.05
2022-09-02T01:37:59.949Z,13.05
2022-09-02T01:40:49.924Z,13.60
2022-09-02T01:43:40.237Z,13.43
2022-09-02T01:46:27.430Z,12.80
2022-09-02T01:49:14.646Z,14.10
2022-09-02T01:52:01.920Z,13.93
2022-09-02T01:54:51.962Z,14.35
2022-09-02T01:57:39.579Z,14.75
2022-09-02T02:00:27.222Z,14.43
2022-09-02T02:03:17.302Z,14.77
2022-09-02T02:06:13.029Z,15.65
2022-09-02T02:09:00.164Z,13.60
2022-09-02T02:11:48.999Z,14.43
2022-09-02T02:14:39.283Z,12.88
2022-09-02T02:17:26.412Z,13.68
2022-09-02T02:20:17.693Z,12.45
2022-09-02T02:23:06.477Z,12.38
2022-09-02T02:25:56.845Z,13.07
2022-09-02T02:28:46.293Z,12.43
2022-09-02T02:31:33.569Z,12.27
2022-09-02T02:34:21.064Z,13.10
2022-09-02T02:37:08.369Z,12.93
2022-09-02T02:39:56.629Z,12.18
2022-09-02T02:42:44.843Z,12.18
2022-09-02T02:45:32.337Z,12.25
2022-09-02T02:48:19.819Z,12.57
2022-09-02T02:51:08.245Z,12.57
2022-09-02T02:53:58.689Z,13.48
2022-09-02T02:56:51.018Z,12.68
2022-09-02T02:59:38.940Z,13.55
2022-09-02T03:02:26.083Z,12.30
2022-09-02T03:05:21.880Z,12.60
2022-09-02T03:08:10.642Z,12.60
2022-09-02T03:10:58.112Z,12.93
2022-09-02T03:13:45.248Z,12.73
2022-09-02T03:16:36.494Z,12.13
2022-09-02T03:19:24.043Z,11.85
2022-09-02T03:22:13.607Z,12.20
2022-09-02T03:25:00.677Z,11.82
2022-09-02T03:27:49.115Z,12.27
2022-09-02T03:30:36.391Z,12.27
2022-09-02T03:33:26.048Z,12.45
2022-09-02T03:36:40.914Z,12.40
2022-09-02T03:39:30.342Z,11.98
2022-09-02T03:42:19.730Z,13.50
2022-09-02T03:45:11.693Z,13.25
2022-09-02T03:47:59.281Z,12.85
2022-09-02T03:50:49.383Z,14.18
2022-09-02T03:53:39.233Z,14.00
2022-09-02T03:56:26.684Z,15.30
2022-09-02T03:59:16.211Z,13.85
2022-09-02T04:06:13.936Z,13.88
2022-09-02T04:09:01.864Z,14.68
2022-09-02T04:11:49.267Z,14.55
2022-09-02T04:14:36.773Z,13.40
2022-09-02T04:18:20.371Z,13.38
2022-09-02T04:21:11.130Z,14.50
2022-09-02T04:24:01.093Z,14.68
2022-09-02T04:26:53.424Z,15.00
2022-09-02T04:29:40.596Z,14.95
2022-09-02T04:32:27.802Z,16.17
2022-09-02T04:35:14.919Z,15.48
2022-09-02T04:38:04.724Z,16.30
2022-09-02T04:40:52.062Z,15.65
2022-09-02T04:43:39.717Z,15.70
2022-09-02T04:46:34.009Z,16.38
2022-09-02T04:49:24.354Z,16.65
2022-09-02T04:52:13.679Z,15.02
2022-09-02T04:55:04.016Z,16.92
2022-09-02T04:57:51.531Z,17.33
2022-09-02T05:00:42.130Z,16.67
2022-09-02T05:03:30.741Z,18.30
2022-09-02T05:06:23.058Z,18.55
2022-09-02T05:09:11.233Z,16.70
2022-09-02T05:11:58.478Z,16.98
2022-09-02T05:14:45.604Z,16.25
2022-09-02T05:17:33.029Z,15.45
2022-09-02T05:20:24.016Z,14.70
2022-09-02T05:23:23.295Z,14.82
2022-09-02T05:26:13.378Z,13.10
2022-09-02T05:29:02.669Z,13.73
2022-09-02T05:31:49.968Z,12.65
2022-09-02T05:34:37.199Z,11.60
2022-09-02T05:37:27.546Z,10.50
2022-09-02T05:40:17.068Z,9.70
2022-09-02T05:43:14.166Z,9.20
2022-09-02T05:46:15.690Z,9.73
2022-09-02T05:49:06.445Z,8.95
2022-09-02T05:52:24.990Z,8.15
2022-09-02T05:55:12.211Z,8.68
2022-09-02T05:58:01.833Z,8.15
2022-09-02T06:00:50.139Z,7.85
2022-09-02T06:03:38.080Z,8.77
2022-09-02T06:06:28.540Z,7.25
2022-09-02T06:09:21.886Z,7.38
2022-09-02T06:12:11.261Z,7.05
2022-09-02T06:14:58.493Z,6.30
2022-09-02T06:17:45.657Z,6.18
2022-09-02T06:20:34.069Z,7.03
2022-09-02T06:23:21.248Z,6.28
2022-09-02T06:26:10.567Z,5.90
2022-09-02T06:28:58.237Z,5.60
2022-09-02T06:31:49.643Z,5.50
2022-09-02T06:34:39.801Z,5.43
2022-09-02T06:37:27.138Z,5.68
2022-09-02T06:40:14.973Z,5.93
2022-09-02T06:43:02.321Z,5.03
2022-09-02T06:45:50.133Z,4.43
2022-09-02T06:48:37.592Z,4.95
2022-09-02T06:51:34.572Z,4.60
2022-09-02T06:54:23.860Z,3.92
2022-09-02T06:57:14.634Z,4.13
2022-09-02T07:00:03.942Z,4.00
2022-09-02T07:03:11.142Z,4.13
2022-09-02T07:06:04.230Z,3.42
2022-09-02T07:08:51.636Z,3.40
2022-09-02T07:11:41.654Z,3.35
2022-09-02T07:14:29.040Z,3.83
2022-09-02T07:17:21.927Z,2.78
2022-09-02T07:20:09.835Z,2.97
2022-09-02T07:22:57.166Z,3.55
2022-09-02T07:25:44.414Z,3.00
2022-09-02T07:28:31.517Z,3.20
2022-09-02T07:31:19.443Z,2.70
2022-09-02T07:34:08.371Z,2.97
2022-09-02T07:37:00.179Z,2.97
2022-09-02T07:39:50.186Z,3.22
2022-09-02T07:42:37.751Z,2.60
2022-09-02T07:45:25.115Z,2.65
2022-09-02T07:48:12.316Z,2.33
2022-09-02T07:50:59.723Z,3.00
2022-09-02T07:53:47.182Z,3.08
2022-09-02T07:56:34.612Z,2.92
2022-09-02T07:59:22.270Z,2.40
2022-09-02T08:02:09.939Z,2.20
2022-09-02T08:05:03.274Z,2.53
2022-09-02T08:07:50.514Z,2.65
2022-09-02T08:10:40.911Z,1.88
2022-09-02T08:13:28.240Z,2.03
2022-09-02T08:16:16.374Z,1.92
2022-09-02T08:19:03.867Z,2.25
2022-09-02T08:21:51.509Z,2.00
2022-09-02T08:24:39.209Z,1.90
2022-09-02T08:27:32.150Z,1.70
2022-09-02T08:30:19.440Z,2.28
2022-09-02T08:33:06.694Z,1.70
2022-09-02T08:35:58.892Z,1.77
2022-09-02T08:38:48.622Z,1.95
2022-09-02T08:42:04.686Z,1.80
2022-09-02T08:44:57.883Z,1.67
2022-09-02T08:47:52.249Z,1.80
2022-09-02T08:50:44.977Z,1.60
2022-09-02T08:53:51.239Z,1.85
2022-09-02T08:56:38.829Z,1.73
2022-09-02T08:59:31.615Z,1.65
2022-09-02T09:02:47.385Z,2.08
2022-09-02T09:06:13.836Z,1.67
2022-09-02T09:09:06.264Z,1.73
2022-09-02T09:15:03.114Z,1.40
2022-09-02T09:18:03.066Z,1.95
2022-09-02T09:20:50.343Z,1.40
2022-09-02T09:23:41.061Z,1.40
2022-09-02T09:26:32.750Z,1.40
2022-09-02T09:29:19.955Z,1.40
2022-09-02T09:32:19.693Z,1.40
2022-09-02T09:35:16.003Z,1.42
2022-09-02T09:38:12.993Z,1.25
2022-09-02T09:41:15.428Z,1.30
2022-09-02T09:44:02.669Z,1.60
2022-09-02T09:47:04.322Z,1.13
2022-09-02T09:50:12.897Z,1.50
2022-09-02T09:53:24.914Z,1.20
2022-09-02T09:56:15.866Z,1.20
2022-09-02T09:59:06.222Z,1.33
2022-09-02T10:01:53.661Z,1.05
2022-09-02T10:04:44.255Z,1.00
2022-09-02T10:07:39.809Z,1.13
2022-09-02T10:10:29.060Z,0.90
2022-09-02T10:13:37.818Z,1.50
2022-09-02T10:16:36.045Z,1.10
2022-09-02T10:19:26.705Z,1.00
2022-09-02T10:22:16.769Z,1.00
2022-09-02T10:25:48.012Z,0.88
2022-09-02T10:28:53.870Z,0.82
2022-09-02T10:32:03.015Z,0.93
2022-09-02T10:35:01.184Z,0.82
2022-09-02T10:38:06.956Z,1.00
2022-09-02T10:41:10.206Z,0.90
2022-09-02T10:44:23.982Z,0.80
2022-09-02T10:47:38.912Z,1.05
2022-09-02T10:50:53.471Z,0.70
2022-09-02T10:53:59.737Z,0.77
2022-09-02T10:57:00.418Z,0.90
2022-09-02T11:00:14.271Z,1.00
2022-09-02T11:03:10.577Z,0.80
2022-09-02T11:06:09.915Z,0.95
2022-09-02T11:09:03.424Z,1.00
2022-09-02T11:12:15.850Z,0.90
2022-09-02T11:15:15.558Z,1.00
2022-09-02T11:18:28.265Z,0.93
2022-09-02T11:21:35.859Z,0.90
2022-09-02T11:24:45.869Z,0.90
2022-09-02T11:27:52.804Z,0.80
2022-09-02T11:30:53.782Z,1.00
2022-09-02T11:36:51.846Z,0.93
2022-09-02T11:39:59.206Z,0.80
2022-09-02T11:43:08.591Z,0.95
2022-09-02T11:46:13.588Z,0.70
2022-09-02T11:49:30.502Z,0.85
2022-09-02T11:52:36.191Z,0.75
2022-09-02T11:55:31.840Z,0.73
2022-09-02T11:58:39.113Z,1.00
2022-09-02T12:01:35.963Z,0.98
2022-09-02T12:07:49.645Z,1.00
2022-09-02T12:10:59.683Z,1.05
2022-09-02T12:16:41.006Z,0.90
2022-09-02T12:19:42.515Z,1.20
2022-09-02T12:22:38.641Z,0.93
2022-09-02T12:25:28.557Z,0.90
2022-09-02T12:28:19.151Z,0.85
2022-09-02T12:31:13.039Z,0.85
2022-09-02T12:34:02.791Z,0.90
2022-09-02T12:37:03.025Z,0.88
2022-09-02T12:39:54.415Z,1.00
2022-09-02T12:42:46.706Z,1.17
2022-09-02T12:45:45.430Z,0.90
2022-09-02T12:48:43.167Z,0.95
2022-09-02T12:52:08.628Z,1.05
2022-09-02T12:54:56.651Z,1.00
2022-09-02T12:57:47.182Z,0.90
2022-09-02T13:01:06.902Z,1.00
2022-09-02T13:04:09.882Z,0.85
2022-09-02T13:07:05.144Z,0.95
2022-09-02T13:10:11.035Z,0.80
2022-09-02T13:13:39.319Z,0.90
2022-09-02T13:16:54.531Z,1.10
2022-09-02T13:20:23.063Z,1.13
2022-09-02T13:23:53.804Z,1.02
2022-09-02T13:27:13.437Z,1.15
2022-09-02T13:30:19.835Z,0.90
2022-09-02T13:33:13.111Z,1.10
2022-09-02T13:36:00.517Z,1.20
2022-09-02T13:38:47.695Z,1.20
2022-09-02T13:41:37.172Z,0.98
2022-09-02T13:44:27.875Z,1.50
2022-09-02T13:47:20.730Z,1.00
2022-09-02T13:50:08.618Z,1.17
2022-09-02T13:56:12.897Z,0.95
2022-09-02T14:01:47.301Z,0.85
2022-09-02T14:04:36.372Z,1.10
2022-09-02T14:07:35.333Z,1.27
2022-09-02T14:10:32.527Z,0.98
2022-09-02T14:13:21.220Z,0.90
2022-09-02T14:16:28.515Z,0.80
2022-09-02T14:19:22.802Z,0.75
2022-09-02T14:22:26.431Z,1.00
2022-09-02T14:25:24.165Z,1.00
2022-09-02T14:28:21.408Z,1.25
2022-09-02T14:31:22.801Z,0.80
2022-09-02T14:34:33.942Z,1.00
2022-09-02T14:37:31.246Z,1.00
2022-09-02T14:40:30.727Z,1.00
2022-09-02T14:43:18.023Z,0.95
2022-09-02T14:46:09.519Z,0.90
2022-09-02T14:48:58.899Z,0.80
2022-09-02T14:51:49.865Z,0.95
2022-09-02T14:54:49.370Z,1.15
2022-09-02T14:57:39.094Z,0.80
2022-09-02T15:00:26.387Z,1.20
2022-09-02T15:03:16.244Z,0.70
2022-09-02T15:06:05.548Z,0.98
2022-09-02T15:08:55.071Z,1.55
2022-09-02T15:11:47.971Z,0.82
2022-09-02T15:14:35.132Z,0.90
2022-09-02T15:17:23.553Z,1.00
2022-09-02T15:20:11.367Z,1.10
2022-09-02T15:22:59.156Z,1.00
2022-09-02T15:25:46.364Z,0.95
2022-09-02T15:28:33.822Z,1.00
2022-09-02T15:31:23.179Z,0.90
2022-09-02T15:34:10.607Z,1.00
2022-09-02T15:36:58.143Z,1.05
2022-09-02T15:39:45.763Z,0.88
2022-09-02T15:42:36.865Z,1.05
2022-09-02T15:45:26.652Z,0.95
2022-09-02T15:48:14.036Z,0.90
2022-09-02T15:51:11.211Z,0.82
2022-09-02T15:54:04.985Z,1.10
2022-09-02T15:56:57.535Z,0.95
2022-09-02T15:59:47.808Z,1.25
2022-09-02T16:02:35.327Z,0.90
2022-09-02T16:05:24.318Z,1.08
2022-09-02T16:08:14.338Z,1.17
2022-09-02T16:11:07.055Z,1.23
2022-09-02T16:13:57.032Z,1.35
2022-09-02T16:16:45.630Z,1.10
2022-09-02T16:19:32.811Z,1.20
2022-09-02T16:22:19.950Z,1.10
2022-09-02T16:25:12.075Z,1.20
2022-09-02T16:27:59.758Z,1.02
2022-09-02T16:30:47.184Z,1.35
2022-09-02T16:33:35.616Z,1.30
2022-09-02T16:36:29.068Z,1.08
2022-09-02T16:39:21.473Z,1.10
2022-09-02T16:42:11.081Z,1.05
2022-09-02T16:44:58.315Z,1.13
2022-09-02T16:47:45.497Z,1.10
2022-09-02T16:50:32.805Z,0.93
2022-09-02T16:53:22.484Z,1.35
2022-09-02T16:56:20.255Z,1.33
2022-09-02T16:59:10.329Z,1.30
2022-09-02T17:01:58.134Z,1.52
2022-09-02T17:04:47.852Z,1.10
2022-09-02T17:07:35.085Z,1.20
2022-09-02T17:10:24.458Z,1.08
2022-09-02T17:13:11.738Z,1.10
2022-09-02T17:15:58.977Z,1.73
2022-09-02T17:18:46.512Z,1.40
2022-09-02T17:21:42.608Z,1.50
2022-09-02T17:24:30.886Z,1.40
2022-09-02T17:27:20.502Z,1.00
2022-09-02T17:30:10.918Z,1.15
2022-09-02T17:33:00.347Z,1.17
2022-09-02T17:36:04.309Z,1.30
2022-09-02T17:39:01.345Z,1.27
2022-09-02T17:41:57.570Z,1.10
2022-09-02T17:44:48.667Z,1.30
2022-09-02T17:47:36.337Z,1.40
2022-09-02T17:50:23.671Z,1.35
2022-09-02T17:53:11.108Z,1.30
2022-09-02T17:56:11.524Z,1.23
2022-09-02T17:59:19.528Z,1.13
2022-09-02T18:02:15.214Z,1.40
2022-09-02T18:05:21.415Z,1.58
2022-09-02T18:08:27.204Z,1.00
2022-09-02T18:11:14.637Z,1.55
2022-09-02T18:14:16.801Z,1.00
2022-09-02T18:17:06.865Z,1.23
2022-09-02T18:19:59.192Z,1.33
2022-09-02T18:23:29.730Z,1.30
2022-09-02T18:27:01.192Z,1.13
2022-09-02T18:30:38.858Z,1.45
2022-09-02T18:33:52.001Z,1.40
2022-09-02T18:40:03.484Z,1.45
2022-09-02T18:43:11.906Z,1.48
2022-09-02T18:46:02.631Z,1.70
2022-09-02T18:48:53.152Z,1.30
2022-09-02T18:51:43.681Z,1.42
2022-09-02T18:54:46.351Z,1.65
2022-09-02T18:57:43.986Z,1.20
2022-09-02T19:00:41.368Z,1.17
2022-09-02T19:03:38.824Z,1.67
2022-09-02T19:06:34.367Z,1.80
2022-09-02T19:09:27.925Z,1.40
2022-09-02T19:12:16.787Z,1.85
2022-09-02T19:15:09.273Z,1.70
2022-09-02T19:17:56.544Z,1.80
2022-09-02T19:20:43.847Z,1.55
2022-09-02T19:23:35.688Z,1.65
2022-09-02T19:26:24.129Z,1.60
2022-09-02T19:29:15.629Z,1.30
2022-09-02T19:32:02.946Z,1.90
2022-09-02T19:34:52.948Z,1.83
2022-09-02T19:37:44.704Z,1.73
2022-09-02T19:40:33.697Z,1.85
2022-09-02T19:43:23.692Z,1.90
2022-09-02T19:46:27.734Z,1.30
2022-09-02T19:49:18.548Z,1.90
2022-09-02T19:52:05.822Z,1.95
2022-09-02T19:54:53.055Z,2.17
2022-09-02T19:57:41.511Z,1.70
2022-09-02T20:00:29.436Z,1.90
2022-09-02T20:03:16.763Z,2.00
2022-09-02T20:06:04.231Z,2.10
2022-09-02T20:08:53.877Z,1.60
2022-09-02T20:11:41.285Z,1.80
2022-09-02T20:14:28.420Z,1.80
2022-09-02T20:17:22.016Z,1.70
2022-09-02T20:20:16.159Z,1.67
2022-09-02T20:23:03.690Z,1.90
2022-09-02T20:26:24.062Z,2.13
2022-09-02T20:29:33.564Z,2.00
2022-09-02T20:32:36.633Z,1.98
2022-09-02T20:35:34.084Z,1.98
2022-09-02T20:38:40.454Z,2.70
2022-09-02T20:42:04.642Z,2.20
2022-09-02T20:45:08.262Z,2.00
2022-09-02T20:48:25.241Z,1.77
2022-09-02T20:51:21.794Z,1.98
2022-09-02T20:54:14.779Z,1.90
2022-09-02T20:57:22.177Z,2.30
2022-09-02T21:00:20.302Z,1.73
2022-09-02T21:03:12.096Z,1.95
2022-09-02T21:06:02.271Z,2.23
2022-09-02T21:09:15.686Z,2.70
2022-09-02T21:12:32.378Z,2.30
2022-09-02T21:15:31.910Z,2.50
2022-09-02T21:18:35.855Z,2.28
2022-09-02T21:21:44.658Z,2.50
2022-09-02T21:24:54.253Z,2.00
2022-09-02T21:27:45.962Z,2.17
2022-09-02T21:30:45.996Z,2.35
2022-09-02T21:33:35.162Z,1.80
2022-09-02T21:36:28.104Z,1.90
2022-09-02T21:39:19.288Z,2.40
2022-09-02T21:42:23.722Z,2.00
2022-09-02T21:45:36.984Z,2.00
2022-09-02T21:48:42.445Z,2.40
2022-09-02T21:51:36.586Z,2.25
2022-09-02T21:54:50.104Z,2.45
2022-09-02T21:57:48.695Z,2.33
2022-09-02T22:00:37.166Z,2.47
2022-09-02T22:03:41.499Z,1.98
2022-09-02T22:06:37.970Z,1.90
2022-09-02T22:09:30.054Z,1.90
2022-09-02T22:12:17.961Z,2.03
2022-09-02T22:15:24.991Z,2.08
2022-09-02T22:18:28.882Z,1.85
2022-09-02T22:21:28.072Z,2.10
2022-09-02T22:24:26.849Z,1.60
2022-09-02T22:27:18.063Z,1.45
2022-09-02T22:30:12.465Z,1.80
2022-09-02T22:33:24.062Z,1.83
2022-09-02T22:36:20.667Z,1.60
2022-09-02T22:39:08.159Z,1.58
2022-09-02T22:42:24.434Z,2.10
2022-09-02T22:45:39.687Z,2.10
2022-09-02T22:48:59.132Z,2.10
2022-09-02T22:52:13.077Z,1.83
2022-09-02T22:55:00.260Z,2.35
2022-09-02T22:58:32.287Z,2.40
2022-09-02T23:01:44.468Z,2.58
2022-09-02T23:04:42.166Z,2.50
2022-09-02T23:07:32.295Z,2.28
2022-09-02T23:10:26.923Z,1.95
2022-09-02T23:13:54.177Z,2.10
2022-09-02T23:16:58.528Z,2.00
2022-09-02T23:20:16.383Z,2.40
2022-09-02T23:23:39.173Z,2.15
2022-09-02T23:26:42.132Z,1.83
2022-09-02T23:33:27.815Z,2.10
2022-09-02T23:36:43.608Z,3.20
2022-09-02T23:40:11.440Z,3.53
2022-09-02T23:42:59.380Z,3.80
2022-09-02T23:45:47.611Z,3.67
2022-09-02T23:48:44.111Z,3.13
2022-09-02T23:51:49.002Z,3.20
2022-09-02T23:55:01.977Z,3.13
2022-09-02T23:58:10.863Z,2.78
